FSU Winter XC Last Chance

March 5, 2021
|
Apalachee Regional Park Tallahassee, FL 00000
HOST: Florida State University   DIRECTOR: David Beauchem   TIMING: Sean Gavigan   REFEREE: Referee  

Men 8k Run CC Garnet Team Results (8k)
Top↑

PL Team Total Time Avg. Time Score 1 2 3 4 5 6 7
1 Syracuse 1:59:38 23:55 31 2 5 7 8 9 17 21
2 Michigan 2:00:09 24:01 42 3 6 10 11 12 14 18
3 Florida State 2:00:23 24:04 49 1 4 13 15 16 20 22
4 Temple 2:07:03 25:24 117 19 23 24 25 26 28 29
5 South Florida 2:17:16 27:27 153 27 30 31 32 33 34  

Men 8k Run CC Garnet Individual Results (8k)
Top↑

PL NAME YEAR TEAM Avg. Mile TIME SCORE
1 Adriaan Wildschutt JR-3 Florida State 04:43.8 23:30.8 1
2 Joe Dragon SR-4 Syracuse 04:47.0 23:46.6 2
3 Devin Meyrer SR-4 Michigan 04:47.2 23:47.9 3
4 Ahmed Muhumed JR-3 Florida State 04:47.6 23:50.0 4
5 JP Trojan SR-4 Syracuse 04:48.2 23:52.7 5
6 Joost Plaetinck SR-4 Michigan 04:48.3 23:53.1 6
7 Silas Derfel FR-1 Syracuse 04:48.9 23:56.3 7
8 Alex Comerford FR-1 Syracuse 04:49.9 24:01.0 8
9 Matthew Scrape SO-2 Syracuse 04:50.0 24:01.9 9
10 Tom Brady FR-1 Michigan 04:51.0 24:06.6 10
11 Nick Foster SO-2 Michigan 04:51.7 24:10.1 11
12 Jacob Lee SR-4 Michigan 04:52.1 24:12.1 12
13 Jacob Holmes SO-2 Florida State 04:53.1 24:17.2 13
14 Christian Hubaker JR-3 Michigan 04:53.4 24:18.4 14
15 Sam Field FR-1 Florida State 04:54.2 24:22.5 15
16 Paul Stafford JR-3 Florida State 04:54.4 24:23.6 16
17 Dominic Hockenbury SR-4 Syracuse 04:54.5 24:24.1 17
18 Jacob Branch SR-4 Michigan 04:55.8 24:30.5 18
19 Zachary Stewart FR-1 Michigan 04:56.4 24:33.7
20 Kristian Holm Jensen SR-4 Temple 04:56.9 24:36.1 19
21 Austin Remick FR-1 Michigan 04:58.8 24:45.6
22 Caleb Pottorff JR-3 Florida State 04:59.8 24:50.5 20
23 Nathan Henderson JR-3 Syracuse 05:01.7 24:59.6 21
24 Gabriel Curtis FR-1 Florida State 05:02.8 25:05.2 22
25 James Gedris SO-2 Michigan 05:03.8 25:10.4
26 Aidan Tooker SR-4 Syracuse 05:04.4 25:13.5
27 Christian Fitch FR-1 Temple 05:04.9 25:15.5 23
28 Zach Leachman FR-1 Florida State 05:05.8 25:20.2
29 Joey Eovaldi SO-2 Syracuse 05:06.1 25:21.7
30 Anderson Denton FR-1 Florida State 05:06.5 25:23.9
31 Ethan Koza JR-3 Temple 05:08.5 25:33.8 24
32 Jack Spamer FR-1 Michigan 05:09.0 25:36.3
33 Jeppe Risvig FR-1 Temple 05:10.6 25:44.2 25
34 Tyler Fauvelle FR-1 Temple 05:12.6 25:54.2 26
35 Benjamin Kailes SO-2 South Florida 05:13.4 25:58.1 27
36 Sean Egan JR-3 Temple 05:14.0 26:01.1 28
37 Jimmy Koel FR-1 Temple 05:14.4 26:02.8 29
38 Zachary Cloud FR-1 Florida State 05:18.1 26:21.6
39 Erik Kain FR-1 Temple 05:18.6 26:23.7
40 Zach Fenton FR-1 West Florida 05:19.8 26:29.9
41 Josh Christianson FR-1 Temple 05:26.7 27:04.4
42 Austin Camps SR-4 South Florida 05:33.3 27:37.0 30
43 Nickolas Kamen SO-2 South Florida 05:35.1 27:46.0 31
44 Khan Imran SO-2 South Florida 05:36.8 27:54.2 32
45 Jacob Hensley SO-2 South Florida 05:38.3 28:01.7 33
46 Cesar Sandoval SR-4 Warner 05:38.4 28:02.4
47 Daniel Marin ? Warner 05:40.5 28:12.8
48 Max Cooper SO-2 South Florida 05:45.8 28:39.0 34
49 Mackenzie Woods SR-4 West Florida 05:51.4 29:07.1
50 William Porter SO-2 Blue Mountain 05:52.1 29:10.6
51 Jacob Keller JR-3 West Florida 05:58.6 29:43.0
52 Will Crigger SR-4 Blue Mountain 06:09.6 30:37.4
53 Jack Forbes SO-2 West Florida 06:16.6 31:12.3
54 Victor Espinosa SO-2 Blue Mountain 06:21.5 31:36.6
55 Owen Hill SO-2 Blue Mountain 06:47.1 33:44.1
0 Yves Uwimana FR-1 South Florida DNF
0 Kasey Knevelbaard ? UNA-Florida State DNF
0 Brian Kiprop ? Unattached DNS
0 Mario Ospina ? Unattached DNS
0 Jesse Dimich-Louvet FR-1 Temple DNS
0 Jack Aho SR-4 Michigan DNS
0 William Livesay FR-1 South Florida DNS
0 Misha Kakoulin JR-3 South Florida DNS
0 Ciaran O?lionaird ? Unattached DNS
0 Anthony Hancock FR-1 Michigan DNS

Women 6k Run CC Garnet Team Results (6k)
Top↑

PL Team Total Time Avg. Time Score 1 2 3 4 5 6 7
1 Michigan 1:45:41 21:08 15 1 2 3 4 5 6 7
2 South Florida 1:58:00 23:36 54 8 9 11 12 14 15 17
3 Dalton State 2:03:11 24:38 77 10 13 16 18 20 21 24
4 West Florida 2:14:24 26:52 115 19 22 23 25 26    

Women 6k Run CC Garnet Individual Results (6k)
Top↑

PL NAME YEAR TEAM Avg. Mile TIME SCORE
1 Ericka VanderLende SO-2 Michigan 05:30.2 20:31.3 1
2 Kathryn House SR-4 Michigan 05:41.0 21:11.4 2
3 Jena Metwalli SR-4 Michigan 05:42.7 21:17.7 3
4 Katelynne Hart FR-1 Michigan 05:43.4 21:20.6 4
5 Alice Hill JR-3 Michigan 05:43.6 21:21.2 5
6 Kayla Windemuller FR-1 Michigan 05:43.8 21:22.0 6
7 Samantha Tran FR-1 Michigan 05:45.9 21:29.8 7
8 Valerie Lastra FR-1 UCF 05:46.5 21:31.9
9 Samantha Saenz SO-2 Michigan 05:47.0 21:33.8
10 Raquel Powers JR-3 Michigan 05:48.9 21:40.8
11 Caitlin Wilkey ? Unattached 05:54.7 22:02.4
12 Rebecca Bergnes ? Unattached 06:01.7 22:28.6
13 Alexandra Weir SO-2 South Florida 06:05.4 22:42.3 8
14 Kate Tugman ? Unattached 06:05.8 22:44.0
15 Abby Schrobilgen ? Unattached 06:10.9 23:03.0
16 Hannah Offenback JR-3 South Florida 06:15.8 23:21.3 9
17 Quinn Wilson ? Unattached 06:18.8 23:32.5
18 Riley Jo Ford FR-1 Dalton State 06:20.6 23:39.0 10
19 Nicole Capparell SO-2 South Florida 06:24.3 23:53.1 11
20 Andie Gonzalez SO-2 South Florida 06:24.6 23:53.9 12
21 Aubrey Johnson SR-4 Blue Mountain 06:24.9 23:55.0
22 Melanie Castro ? Unattached 06:25.1 23:55.9
23 Alex Gass JR-3 Dalton State 06:28.9 24:10.1 13
24 Cassandra Montalvo JR-3 South Florida 06:28.9 24:10.1 14
25 Alondra Reyna-Lopez ? Unattached 06:30.1 24:14.7
26 Kaleigh Biss JR-3 South Florida 06:31.6 24:20.1 15
27 Kathryn Vradenburgh SO-2 Dalton State 06:33.6 24:27.7 16
28 Riley Phillips FR-1 South Florida 06:34.9 24:32.4 17
29 Rachel Johnson ? Unattached 06:35.6 24:35.1
30 Kaia Stevenson ? Unattached 06:41.8 24:58.1
31 Kelly Lynch FR-1 South Florida 06:43.4 25:04.2
32 Kay Vradenburgh SR-4 Dalton State 06:44.3 25:07.6 18
33 Kayla Skelton SR-4 South Florida 06:44.7 25:09.1
34 Ashley David ? Unattached 06:45.7 25:12.7
35 Delaney Sheehan JR-3 South Florida 06:49.2 25:25.8
36 Skylar Grant FR-1 West Florida 06:53.3 25:41.0 19
37 Jessica O'Bryan JR-3 South Florida 06:54.5 25:45.7
38 Kayla Mattox FR-1 Dalton State 06:54.9 25:46.9 20
39 Kate Roberts SO-2 Dalton State 07:00.8 26:09.0 21
40 Myra Tubb JR-3 West Florida 07:03.5 26:19.2 22
41 Emma Warren ? Unattached 07:06.2 26:29.1
42 Julianne Dennison FR-1 West Florida 07:06.7 26:31.2 23
43 Skylar Detjen SO-2 South Florida 07:15.7 27:04.5
44 Haley Tillery SO-2 Dalton State 07:17.3 27:10.5 24
45 Isabella Timiraos ? Unattached 07:18.3 27:14.2
46 Brianna Basford JR-3 West Florida 07:23.3 27:32.8 25
47 Emily Molen FR-1 West Florida 07:36.1 28:20.7 26
48 Rebecca Poe JR-3 Dalton State 07:44.0 28:50.0
0 Rachel Ward JR-3 Dalton State DNF
0 Nicole McConnell ? Unattached DNF
0 Alivia Bienz JR-3 South Florida DNS
0 Jodie Judd ? Unattached DNS
0 Maddy Trevisan SR-4 Michigan DNS
0 Jennifer Lima ? Unattached DNS
0 Kayla Easterly ? Unattached DNS
0 Julia Blankenbaker ? Unattached DNS
0 Riley Bahr ? Unattached DNS